Airfield :
LOGIN :

Register | Disclaimer

   EN    FR    IT 

 










Legend :    VFR   Marginal VFR   IFR   Intensive IFR   Very Intensive IFR
Visi :
Ceiling :
>= 8 km
>= 3000ft
5 to 8 km
1000 to 3000 ft
1500m to 5 km
500 to 1000 ft
800 to 1500m
200 to 500 ft
< 800m
< 200 ft
Symbols :   Thunderstorms  Fog  Heavy snow  Heavy precipitations  Wind > 20 kt
SIGMETs :     Misc.  Thunderstorms  Icing  Turbulence  Mountain Waves  Volcanic Ashes






- Airport Elevation : 70 ft
- IATA code : WBG


ETNS - Schleswig

CURRENT METAR :
  • 272120Z AUTO 24006KT 5000 // ////// 14/13 Q1015 ///

EXPIRED METARs :
  • 272020Z AUTO 25012KT 3600 // ////// 14/13 Q1015 ///
  • 271920Z AUTO 16010KT 5000 // ////// 19/16 Q1013 ///

TAF TAF ETNS
Valid from the 27 at 14:00 until the 27 at 23:00 UTC


271319Z 2714/2723 17010KT 9999 NSW SCT020 SCT100 BKN200
PROB30 2714/2719 19012KT 5000 -SHRA BKN020TCU
TEMPO 2719/2723 20015KT 4000 RA BKN007



MET'MAP, your aeronautical weather chart ! - Copyright ORBIFLY December 2007 - Disclaimer

ORBIFLY MET'MAP TEAM :

Programming & Development : Alexandra Zaïnal
Concept & original design : Baudouin d'Aumeries
Assistance for programming : Marc-Olivier Méhu
Technical & hardware support : Manuel Goepfert

Contact : metmap@orbifly.com




SOURCES & CREDITS :

   NOAA